sensor_id;sensor_type;location;lat;lon;timestamp;P1;durP1;ratioP1;P2;durP2;ratioP2
46110;SDS011;31849;55.992;37.252;2023-04-29T00:03:45;3.60;;;2.70;;
46110;SDS011;31849;55.992;37.252;2023-04-29T00:08:50;5.15;;;2.50;;
46110;SDS011;31849;55.992;37.252;2023-04-29T00:13:54;3.22;;;2.42;;
46110;SDS011;31849;55.992;37.252;2023-04-29T00:18:57;3.88;;;2.70;;
46110;SDS011;31849;55.992;37.252;2023-04-29T00:24:02;3.10;;;2.40;;
46110;SDS011;31849;55.992;37.252;2023-04-29T00:29:06;3.53;;;2.30;;
46110;SDS011;31849;55.992;37.252;2023-04-29T00:34:10;3.53;;;2.60;;
46110;SDS011;31849;55.992;37.252;2023-04-29T00:39:15;2.95;;;2.50;;
46110;SDS011;31849;55.992;37.252;2023-04-29T00:49:21;4.57;;;2.95;;
46110;SDS011;31849;55.992;37.252;2023-04-29T00:54:26;3.47;;;2.60;;
46110;SDS011;31849;55.992;37.252;2023-04-29T00:59:30;3.72;;;2.85;;
46110;SDS011;31849;55.992;37.252;2023-04-29T01:04:34;3.45;;;2.42;;
46110;SDS011;31849;55.992;37.252;2023-04-29T01:09:42;3.88;;;2.60;;
46110;SDS011;31849;55.992;37.252;2023-04-29T01:14:58;3.58;;;2.65;;
46110;SDS011;31849;55.992;37.252;2023-04-29T01:20:07;4.07;;;2.35;;
46110;SDS011;31849;55.992;37.252;2023-04-29T01:25:13;3.33;;;2.35;;
46110;SDS011;31849;55.992;37.252;2023-04-29T01:30:19;2.95;;;2.40;;
46110;SDS011;31849;55.992;37.252;2023-04-29T01:35:37;3.63;;;2.40;;
46110;SDS011;31849;55.992;37.252;2023-04-29T01:40:51;3.60;;;2.00;;
46110;SDS011;31849;55.992;37.252;2023-04-29T01:46:01;3.70;;;2.30;;
46110;SDS011;31849;55.992;37.252;2023-04-29T01:51:06;3.42;;;2.20;;
46110;SDS011;31849;55.992;37.252;2023-04-29T01:56:11;2.90;;;1.90;;
46110;SDS011;31849;55.992;37.252;2023-04-29T02:06:18;2.55;;;1.63;;
46110;SDS011;31849;55.992;37.252;2023-04-29T02:11:23;3.40;;;1.70;;
46110;SDS011;31849;55.992;37.252;2023-04-29T02:16:26;2.28;;;1.67;;
46110;SDS011;31849;55.992;37.252;2023-04-29T02:21:30;2.67;;;1.70;;
46110;SDS011;31849;55.992;37.252;2023-04-29T02:26:37;3.97;;;2.05;;
46110;SDS011;31849;55.992;37.252;2023-04-29T02:31:40;3.05;;;2.00;;
46110;SDS011;31849;55.992;37.252;2023-04-29T02:36:44;4.18;;;1.95;;
46110;SDS011;31849;55.992;37.252;2023-04-29T02:41:49;3.58;;;1.90;;
46110;SDS011;31849;55.992;37.252;2023-04-29T02:46:56;3.20;;;1.83;;
46110;SDS011;31849;55.992;37.252;2023-04-29T02:51:59;3.58;;;2.00;;
46110;SDS011;31849;55.992;37.252;2023-04-29T02:57:04;3.17;;;1.80;;
46110;SDS011;31849;55.992;37.252;2023-04-29T03:02:08;2.95;;;1.52;;
46110;SDS011;31849;55.992;37.252;2023-04-29T03:07:12;2.22;;;1.40;;
46110;SDS011;31849;55.992;37.252;2023-04-29T03:12:19;2.60;;;1.35;;
46110;SDS011;31849;55.992;37.252;2023-04-29T03:22:26;3.10;;;1.60;;
46110;SDS011;31849;55.992;37.252;2023-04-29T03:27:31;4.82;;;2.00;;
46110;SDS011;31849;55.992;37.252;2023-04-29T03:32:34;2.80;;;1.77;;
46110;SDS011;31849;55.992;37.252;2023-04-29T03:37:38;2.85;;;1.50;;
46110;SDS011;31849;55.992;37.252;2023-04-29T03:42:46;4.20;;;1.83;;
46110;SDS011;31849;55.992;37.252;2023-04-29T03:52:54;3.33;;;1.83;;
46110;SDS011;31849;55.992;37.252;2023-04-29T03:58:00;3.78;;;2.33;;
46110;SDS011;31849;55.992;37.252;2023-04-29T04:03:03;2.90;;;2.05;;
46110;SDS011;31849;55.992;37.252;2023-04-29T04:08:07;4.35;;;2.15;;
46110;SDS011;31849;55.992;37.252;2023-04-29T04:13:13;3.58;;;2.13;;
46110;SDS011;31849;55.992;37.252;2023-04-29T04:18:16;3.78;;;2.40;;
46110;SDS011;31849;55.992;37.252;2023-04-29T04:23:20;4.78;;;2.10;;
46110;SDS011;31849;55.992;37.252;2023-04-29T04:28:25;5.13;;;2.25;;
46110;SDS011;31849;55.992;37.252;2023-04-29T04:38:32;4.00;;;2.65;;
46110;SDS011;31849;55.992;37.252;2023-04-29T04:43:37;5.23;;;2.50;;
46110;SDS011;31849;55.992;37.252;2023-04-29T04:48:42;4.03;;;2.30;;
46110;SDS011;31849;55.992;37.252;2023-04-29T04:53:45;4.28;;;2.70;;
46110;SDS011;31849;55.992;37.252;2023-04-29T04:58:50;4.85;;;2.88;;
46110;SDS011;31849;55.992;37.252;2023-04-29T05:08:58;4.70;;;2.75;;
46110;SDS011;31849;55.992;37.252;2023-04-29T05:14:03;4.55;;;2.58;;
46110;SDS011;31849;55.992;37.252;2023-04-29T05:19:07;4.63;;;2.40;;
46110;SDS011;31849;55.992;37.252;2023-04-29T05:24:10;5.90;;;2.42;;
46110;SDS011;31849;55.992;37.252;2023-04-29T05:29:15;3.85;;;2.05;;
46110;SDS011;31849;55.992;37.252;2023-04-29T05:34:19;3.97;;;2.17;;
46110;SDS011;31849;55.992;37.252;2023-04-29T05:39:22;4.30;;;2.67;;
46110;SDS011;31849;55.992;37.252;2023-04-29T05:44:28;7.63;;;3.20;;
46110;SDS011;31849;55.992;37.252;2023-04-29T05:54:35;4.43;;;2.38;;
46110;SDS011;31849;55.992;37.252;2023-04-29T05:59:40;4.82;;;2.60;;
46110;SDS011;31849;55.992;37.252;2023-04-29T06:09:48;4.07;;;2.30;;
46110;SDS011;31849;55.992;37.252;2023-04-29T06:14:54;5.90;;;2.25;;
46110;SDS011;31849;55.992;37.252;2023-04-29T06:25:01;3.33;;;1.90;;
46110;SDS011;31849;55.992;37.252;2023-04-29T06:30:06;3.60;;;1.90;;
46110;SDS011;31849;55.992;37.252;2023-04-29T06:35:11;2.60;;;1.80;;
46110;SDS011;31849;55.992;37.252;2023-04-29T06:40:14;3.67;;;2.25;;
46110;SDS011;31849;55.992;37.252;2023-04-29T06:45:19;3.13;;;2.20;;
46110;SDS011;31849;55.992;37.252;2023-04-29T06:50:24;3.35;;;2.08;;
46110;SDS011;31849;55.992;37.252;2023-04-29T06:55:28;3.28;;;2.00;;
46110;SDS011;31849;55.992;37.252;2023-04-29T07:00:33;3.88;;;2.30;;
46110;SDS011;31849;55.992;37.252;2023-04-29T07:05:37;4.85;;;2.58;;
46110;SDS011;31849;55.992;37.252;2023-04-29T07:10:42;4.00;;;2.15;;
46110;SDS011;31849;55.992;37.252;2023-04-29T07:15:47;4.43;;;2.40;;
46110;SDS011;31849;55.992;37.252;2023-04-29T07:20:51;2.83;;;2.22;;
46110;SDS011;31849;55.992;37.252;2023-04-29T07:25:56;4.75;;;2.08;;
46110;SDS011;31849;55.992;37.252;2023-04-29T07:31:01;4.18;;;2.10;;
46110;SDS011;31849;55.992;37.252;2023-04-29T07:36:05;3.22;;;2.22;;
46110;SDS011;31849;55.992;37.252;2023-04-29T07:41:09;3.42;;;2.10;;
46110;SDS011;31849;55.992;37.252;2023-04-29T07:46:14;3.90;;;2.73;;
46110;SDS011;31849;55.992;37.252;2023-04-29T07:51:18;3.90;;;2.83;;
46110;SDS011;31849;55.992;37.252;2023-04-29T07:56:22;6.20;;;2.23;;
46110;SDS011;31849;55.992;37.252;2023-04-29T08:01:28;4.22;;;2.70;;
46110;SDS011;31849;55.992;37.252;2023-04-29T08:06:31;3.58;;;2.42;;
46110;SDS011;31849;55.992;37.252;2023-04-29T08:11:35;4.87;;;2.60;;
46110;SDS011;31849;55.992;37.252;2023-04-29T08:16:42;5.75;;;2.80;;
46110;SDS011;31849;55.992;37.252;2023-04-29T08:21:45;3.38;;;2.55;;
46110;SDS011;31849;55.992;37.252;2023-04-29T08:26:48;3.90;;;2.47;;
46110;SDS011;31849;55.992;37.252;2023-04-29T08:31:54;4.70;;;2.47;;
46110;SDS011;31849;55.992;37.252;2023-04-29T08:36:58;4.40;;;2.10;;
46110;SDS011;31849;55.992;37.252;2023-04-29T08:42:06;5.07;;;2.07;;
46110;SDS011;31849;55.992;37.252;2023-04-29T08:47:12;3.38;;;2.00;;
46110;SDS011;31849;55.992;37.252;2023-04-29T08:52:17;3.17;;;1.90;;
46110;SDS011;31849;55.992;37.252;2023-04-29T08:57:20;3.10;;;2.00;;
46110;SDS011;31849;55.992;37.252;2023-04-29T09:02:28;3.60;;;2.33;;
46110;SDS011;31849;55.992;37.252;2023-04-29T09:07:32;5.57;;;2.28;;
46110;SDS011;31849;55.992;37.252;2023-04-29T09:12:36;4.82;;;2.00;;
46110;SDS011;31849;55.992;37.252;2023-04-29T09:17:42;5.20;;;2.10;;
46110;SDS011;31849;55.992;37.252;2023-04-29T09:22:47;4.95;;;2.00;;
46110;SDS011;31849;55.992;37.252;2023-04-29T09:27:51;3.30;;;1.90;;
46110;SDS011;31849;55.992;37.252;2023-04-29T09:33:06;2.72;;;1.88;;
46110;SDS011;31849;55.992;37.252;2023-04-29T09:38:11;4.50;;;2.10;;
46110;SDS011;31849;55.992;37.252;2023-04-29T09:43:17;3.85;;;2.15;;
46110;SDS011;31849;55.992;37.252;2023-04-29T09:48:23;3.58;;;1.92;;
46110;SDS011;31849;55.992;37.252;2023-04-29T09:53:36;2.93;;;1.80;;
46110;SDS011;31849;55.992;37.252;2023-04-29T09:58:39;5.10;;;2.08;;
46110;SDS011;31849;55.992;37.252;2023-04-29T10:03:44;2.15;;;1.48;;
46110;SDS011;31849;55.992;37.252;2023-04-29T10:08:50;5.15;;;1.85;;
46110;SDS011;31849;55.992;37.252;2023-04-29T10:13:54;3.80;;;1.80;;
46110;SDS011;31849;55.992;37.252;2023-04-29T10:19:03;4.70;;;1.85;;
46110;SDS011;31849;55.992;37.252;2023-04-29T10:24:09;3.03;;;1.60;;
46110;SDS011;31849;55.992;37.252;2023-04-29T10:29:14;3.55;;;1.70;;
46110;SDS011;31849;55.992;37.252;2023-04-29T10:34:21;2.38;;;1.60;;
46110;SDS011;31849;55.992;37.252;2023-04-29T10:39:29;3.38;;;1.63;;
46110;SDS011;31849;55.992;37.252;2023-04-29T10:44:47;4.30;;;1.48;;
46110;SDS011;31849;55.992;37.252;2023-04-29T10:50:22;2.63;;;1.50;;
46110;SDS011;31849;55.992;37.252;2023-04-29T10:55:25;3.58;;;1.60;;
46110;SDS011;31849;55.992;37.252;2023-04-29T11:00:29;4.03;;;1.80;;
46110;SDS011;31849;55.992;37.252;2023-04-29T11:10:39;4.25;;;1.60;;
46110;SDS011;31849;55.992;37.252;2023-04-29T11:15:44;5.40;;;1.95;;
46110;SDS011;31849;55.992;37.252;2023-04-29T11:26:20;5.40;;;1.77;;
46110;SDS011;31849;55.992;37.252;2023-04-29T11:31:25;4.38;;;1.40;;
46110;SDS011;31849;55.992;37.252;2023-04-29T11:36:32;4.88;;;1.83;;
46110;SDS011;31849;55.992;37.252;2023-04-29T11:41:36;3.42;;;1.48;;
46110;SDS011;31849;55.992;37.252;2023-04-29T11:46:40;3.53;;;1.80;;
46110;SDS011;31849;55.992;37.252;2023-04-29T11:51:45;3.22;;;1.60;;
46110;SDS011;31849;55.992;37.252;2023-04-29T11:56:48;5.28;;;2.03;;
46110;SDS011;31849;55.992;37.252;2023-04-29T12:01:55;2.13;;;1.40;;
46110;SDS011;31849;55.992;37.252;2023-04-29T12:07:03;3.42;;;1.70;;
46110;SDS011;31849;55.992;37.252;2023-04-29T12:12:06;4.18;;;1.70;;
46110;SDS011;31849;55.992;37.252;2023-04-29T12:17:10;4.50;;;1.30;;
46110;SDS011;31849;55.992;37.252;2023-04-29T12:22:15;3.92;;;1.33;;
46110;SDS011;31849;55.992;37.252;2023-04-29T12:27:21;2.80;;;1.55;;
46110;SDS011;31849;55.992;37.252;2023-04-29T12:32:27;3.47;;;1.30;;
46110;SDS011;31849;55.992;37.252;2023-04-29T12:37:32;2.35;;;1.25;;
46110;SDS011;31849;55.992;37.252;2023-04-29T12:42:36;3.58;;;1.50;;
46110;SDS011;31849;55.992;37.252;2023-04-29T12:47:43;5.30;;;1.40;;
46110;SDS011;31849;55.992;37.252;2023-04-29T12:52:48;3.75;;;1.50;;
46110;SDS011;31849;55.992;37.252;2023-04-29T12:57:52;5.57;;;1.20;;
46110;SDS011;31849;55.992;37.252;2023-04-29T13:02:56;3.83;;;1.30;;
46110;SDS011;31849;55.992;37.252;2023-04-29T13:08:01;5.53;;;1.77;;
46110;SDS011;31849;55.992;37.252;2023-04-29T13:13:06;2.88;;;1.63;;
46110;SDS011;31849;55.992;37.252;2023-04-29T13:18:10;4.03;;;1.73;;
46110;SDS011;31849;55.992;37.252;2023-04-29T13:23:15;3.63;;;1.40;;
46110;SDS011;31849;55.992;37.252;2023-04-29T13:28:18;3.83;;;1.63;;
46110;SDS011;31849;55.992;37.252;2023-04-29T13:33:22;4.55;;;1.58;;
46110;SDS011;31849;55.992;37.252;2023-04-29T13:38:27;5.75;;;1.65;;
46110;SDS011;31849;55.992;37.252;2023-04-29T13:43:31;6.40;;;1.45;;
46110;SDS011;31849;55.992;37.252;2023-04-29T13:48:41;1.88;;;1.15;;
46110;SDS011;31849;55.992;37.252;2023-04-29T13:54:05;2.58;;;1.30;;
46110;SDS011;31849;55.992;37.252;2023-04-29T13:59:12;3.20;;;1.40;;
46110;SDS011;31849;55.992;37.252;2023-04-29T14:04:36;4.65;;;1.40;;
46110;SDS011;31849;55.992;37.252;2023-04-29T14:09:41;4.03;;;1.40;;
46110;SDS011;31849;55.992;37.252;2023-04-29T14:14:45;4.05;;;1.35;;
46110;SDS011;31849;55.992;37.252;2023-04-29T14:19:48;4.80;;;1.58;;
46110;SDS011;31849;55.992;37.252;2023-04-29T14:24:53;4.83;;;1.37;;
46110;SDS011;31849;55.992;37.252;2023-04-29T14:29:57;3.50;;;1.42;;
46110;SDS011;31849;55.992;37.252;2023-04-29T14:35:00;2.90;;;1.30;;
46110;SDS011;31849;55.992;37.252;2023-04-29T14:40:07;3.90;;;1.40;;
46110;SDS011;31849;55.992;37.252;2023-04-29T14:45:11;4.82;;;1.80;;
46110;SDS011;31849;55.992;37.252;2023-04-29T14:50:15;6.60;;;1.60;;
46110;SDS011;31849;55.992;37.252;2023-04-29T14:55:20;4.55;;;1.60;;
46110;SDS011;31849;55.992;37.252;2023-04-29T15:00:26;3.65;;;1.83;;
46110;SDS011;31849;55.992;37.252;2023-04-29T15:05:29;2.70;;;1.52;;
46110;SDS011;31849;55.992;37.252;2023-04-29T15:10:35;4.40;;;1.67;;
46110;SDS011;31849;55.992;37.252;2023-04-29T15:15:38;2.85;;;1.00;;
46110;SDS011;31849;55.992;37.252;2023-04-29T15:20:42;2.00;;;1.30;;
46110;SDS011;31849;55.992;37.252;2023-04-29T15:25:47;3.50;;;1.20;;
46110;SDS011;31849;55.992;37.252;2023-04-29T15:30:50;3.03;;;1.30;;
46110;SDS011;31849;55.992;37.252;2023-04-29T15:35:54;4.93;;;1.23;;
46110;SDS011;31849;55.992;37.252;2023-04-29T15:40:59;3.35;;;1.73;;
46110;SDS011;31849;55.992;37.252;2023-04-29T15:46:04;4.40;;;1.52;;
46110;SDS011;31849;55.992;37.252;2023-04-29T15:51:08;5.85;;;1.65;;
46110;SDS011;31849;55.992;37.252;2023-04-29T15:56:16;3.83;;;1.95;;
46110;SDS011;31849;55.992;37.252;2023-04-29T16:01:19;4.95;;;2.05;;
46110;SDS011;31849;55.992;37.252;2023-04-29T16:06:23;5.57;;;1.83;;
46110;SDS011;31849;55.992;37.252;2023-04-29T16:11:29;4.85;;;1.50;;
46110;SDS011;31849;55.992;37.252;2023-04-29T16:16:33;6.57;;;1.80;;
46110;SDS011;31849;55.992;37.252;2023-04-29T16:21:36;10.25;;;2.58;;
46110;SDS011;31849;55.992;37.252;2023-04-29T16:26:41;5.68;;;2.03;;
46110;SDS011;31849;55.992;37.252;2023-04-29T16:31:45;8.52;;;2.30;;
46110;SDS011;31849;55.992;37.252;2023-04-29T16:36:49;12.15;;;2.45;;
46110;SDS011;31849;55.992;37.252;2023-04-29T16:41:54;13.73;;;3.17;;
46110;SDS011;31849;55.992;37.252;2023-04-29T16:46:58;9.25;;;2.78;;
46110;SDS011;31849;55.992;37.252;2023-04-29T16:52:02;8.63;;;2.40;;
46110;SDS011;31849;55.992;37.252;2023-04-29T16:57:07;5.95;;;2.95;;
46110;SDS011;31849;55.992;37.252;2023-04-29T17:02:11;14.75;;;4.10;;
46110;SDS011;31849;55.992;37.252;2023-04-29T17:07:14;15.70;;;3.80;;
46110;SDS011;31849;55.992;37.252;2023-04-29T17:12:21;12.85;;;4.07;;
46110;SDS011;31849;55.992;37.252;2023-04-29T17:17:25;12.27;;;4.63;;
46110;SDS011;31849;55.992;37.252;2023-04-29T17:22:28;18.52;;;6.28;;
46110;SDS011;31849;55.992;37.252;2023-04-29T17:32:38;20.53;;;10.47;;
46110;SDS011;31849;55.992;37.252;2023-04-29T17:37:42;32.10;;;10.37;;
46110;SDS011;31849;55.992;37.252;2023-04-29T17:42:47;26.52;;;8.48;;
46110;SDS011;31849;55.992;37.252;2023-04-29T17:47:51;19.88;;;6.32;;
46110;SDS011;31849;55.992;37.252;2023-04-29T17:52:54;25.23;;;6.10;;
46110;SDS011;31849;55.992;37.252;2023-04-29T17:57:59;23.10;;;6.03;;
46110;SDS011;31849;55.992;37.252;2023-04-29T18:08:07;18.10;;;5.35;;
46110;SDS011;31849;55.992;37.252;2023-04-29T18:13:12;17.27;;;6.38;;
46110;SDS011;31849;55.992;37.252;2023-04-29T18:23:18;16.30;;;6.45;;
46110;SDS011;31849;55.992;37.252;2023-04-29T18:28:24;23.65;;;6.30;;
46110;SDS011;31849;55.992;37.252;2023-04-29T18:33:29;21.98;;;6.57;;
46110;SDS011;31849;55.992;37.252;2023-04-29T18:38:33;23.15;;;7.40;;
46110;SDS011;31849;55.992;37.252;2023-04-29T18:43:38;17.33;;;6.43;;
46110;SDS011;31849;55.992;37.252;2023-04-29T18:48:41;22.15;;;7.30;;
46110;SDS011;31849;55.992;37.252;2023-04-29T18:53:45;21.20;;;6.70;;
46110;SDS011;31849;55.992;37.252;2023-04-29T18:58:50;21.38;;;7.93;;
46110;SDS011;31849;55.992;37.252;2023-04-29T19:08:58;21.77;;;7.95;;
46110;SDS011;31849;55.992;37.252;2023-04-29T19:14:03;25.58;;;7.85;;
46110;SDS011;31849;55.992;37.252;2023-04-29T19:19:07;21.80;;;7.68;;
46110;SDS011;31849;55.992;37.252;2023-04-29T19:24:11;24.08;;;7.18;;
46110;SDS011;31849;55.992;37.252;2023-04-29T19:29:16;21.17;;;6.25;;
46110;SDS011;31849;55.992;37.252;2023-04-29T19:34:19;16.35;;;6.20;;
46110;SDS011;31849;55.992;37.252;2023-04-29T19:39:23;23.52;;;8.02;;
46110;SDS011;31849;55.992;37.252;2023-04-29T19:44:28;24.48;;;7.95;;
46110;SDS011;31849;55.992;37.252;2023-04-29T19:49:32;14.40;;;6.68;;
46110;SDS011;31849;55.992;37.252;2023-04-29T19:54:36;17.98;;;7.20;;
46110;SDS011;31849;55.992;37.252;2023-04-29T19:59:42;22.88;;;6.93;;
46110;SDS011;31849;55.992;37.252;2023-04-29T20:04:46;14.88;;;6.93;;
46110;SDS011;31849;55.992;37.252;2023-04-29T20:09:50;13.45;;;6.97;;
46110;SDS011;31849;55.992;37.252;2023-04-29T20:14:55;13.87;;;6.30;;
46110;SDS011;31849;55.992;37.252;2023-04-29T20:19:59;12.38;;;5.55;;
46110;SDS011;31849;55.992;37.252;2023-04-29T20:25:04;13.73;;;6.50;;
46110;SDS011;31849;55.992;37.252;2023-04-29T20:30:10;19.60;;;6.40;;
46110;SDS011;31849;55.992;37.252;2023-04-29T20:35:13;14.13;;;6.10;;
46110;SDS011;31849;55.992;37.252;2023-04-29T20:40:17;14.77;;;5.63;;
46110;SDS011;31849;55.992;37.252;2023-04-29T20:45:23;13.60;;;5.50;;
46110;SDS011;31849;55.992;37.252;2023-04-29T20:50:26;18.05;;;5.85;;
46110;SDS011;31849;55.992;37.252;2023-04-29T20:55:30;19.52;;;5.88;;
46110;SDS011;31849;55.992;37.252;2023-04-29T21:00:35;14.85;;;5.60;;
46110;SDS011;31849;55.992;37.252;2023-04-29T21:05:38;13.23;;;4.70;;
46110;SDS011;31849;55.992;37.252;2023-04-29T21:10:42;15.10;;;5.03;;
46110;SDS011;31849;55.992;37.252;2023-04-29T21:15:47;12.00;;;5.07;;
46110;SDS011;31849;55.992;37.252;2023-04-29T21:20:51;18.15;;;6.07;;
46110;SDS011;31849;55.992;37.252;2023-04-29T21:25:55;16.88;;;5.80;;
46110;SDS011;31849;55.992;37.252;2023-04-29T21:31:00;19.38;;;6.82;;
46110;SDS011;31849;55.992;37.252;2023-04-29T21:36:03;19.50;;;6.13;;
46110;SDS011;31849;55.992;37.252;2023-04-29T21:41:07;18.10;;;6.55;;
46110;SDS011;31849;55.992;37.252;2023-04-29T21:46:21;20.30;;;7.72;;
46110;SDS011;31849;55.992;37.252;2023-04-29T21:51:25;19.90;;;7.65;;
46110;SDS011;31849;55.992;37.252;2023-04-29T21:56:30;19.23;;;6.80;;
46110;SDS011;31849;55.992;37.252;2023-04-29T22:01:35;16.73;;;6.28;;
46110;SDS011;31849;55.992;37.252;2023-04-29T22:06:49;16.13;;;6.90;;
46110;SDS011;31849;55.992;37.252;2023-04-29T22:11:52;15.60;;;7.18;;
46110;SDS011;31849;55.992;37.252;2023-04-29T22:16:57;16.33;;;7.07;;
46110;SDS011;31849;55.992;37.252;2023-04-29T22:27:04;15.32;;;6.45;;
46110;SDS011;31849;55.992;37.252;2023-04-29T22:32:09;12.32;;;5.95;;
46110;SDS011;31849;55.992;37.252;2023-04-29T22:37:13;18.58;;;6.20;;
46110;SDS011;31849;55.992;37.252;2023-04-29T22:42:16;13.55;;;5.85;;
46110;SDS011;31849;55.992;37.252;2023-04-29T22:47:21;11.55;;;5.90;;
46110;SDS011;31849;55.992;37.252;2023-04-29T22:52:25;14.80;;;6.10;;
46110;SDS011;31849;55.992;37.252;2023-04-29T22:57:28;13.10;;;5.65;;
46110;SDS011;31849;55.992;37.252;2023-04-29T23:02:33;22.73;;;6.25;;
46110;SDS011;31849;55.992;37.252;2023-04-29T23:12:40;19.58;;;6.82;;
46110;SDS011;31849;55.992;37.252;2023-04-29T23:17:45;13.50;;;7.20;;
46110;SDS011;31849;55.992;37.252;2023-04-29T23:27:52;16.58;;;7.20;;
46110;SDS011;31849;55.992;37.252;2023-04-29T23:32:57;22.95;;;7.03;;
46110;SDS011;31849;55.992;37.252;2023-04-29T23:38:01;13.63;;;6.60;;
46110;SDS011;31849;55.992;37.252;2023-04-29T23:43:05;14.93;;;7.15;;
46110;SDS011;31849;55.992;37.252;2023-04-29T23:48:10;13.52;;;7.07;;
46110;SDS011;31849;55.992;37.252;2023-04-29T23:53:14;15.48;;;6.63;;
46110;SDS011;31849;55.992;37.252;2023-04-29T23:58:17;15.15;;;6.70;;
